createdAt,value
2017-12-13T00:01:35.923Z,16.30
2017-12-13T00:04:04.355Z,15.80
2017-12-13T00:06:33.122Z,16.10
2017-12-13T00:09:01.825Z,16.00
2017-12-13T00:11:30.197Z,15.60
2017-12-13T00:13:58.069Z,15.70
2017-12-13T00:16:25.915Z,16.80
2017-12-13T00:18:54.716Z,17.80
2017-12-13T00:21:22.608Z,17.00
2017-12-13T00:23:51.269Z,16.70
2017-12-13T00:26:19.105Z,16.50
2017-12-13T00:28:46.975Z,16.40
2017-12-13T00:31:14.881Z,16.80
2017-12-13T00:33:42.747Z,16.10
2017-12-13T00:36:10.583Z,16.70
2017-12-13T00:38:39.280Z,17.00
2017-12-13T00:41:07.087Z,16.10
2017-12-13T00:43:36.350Z,16.90
2017-12-13T00:46:04.212Z,17.30
2017-12-13T00:48:32.047Z,17.50
2017-12-13T00:50:59.888Z,17.90
2017-12-13T00:53:27.712Z,18.40
2017-12-13T00:55:55.557Z,18.10
2017-12-13T00:58:23.320Z,17.80
2017-12-13T01:00:51.850Z,17.90
2017-12-13T01:03:19.631Z,17.10
2017-12-13T01:05:47.558Z,17.20
2017-12-13T01:08:15.342Z,17.20
2017-12-13T01:10:43.186Z,17.40
2017-12-13T01:13:11.014Z,17.60
2017-12-13T01:15:39.048Z,17.50
2017-12-13T01:18:07.571Z,16.90
2017-12-13T01:20:35.421Z,16.50
2017-12-13T01:23:05.261Z,16.00
2017-12-13T01:25:33.781Z,15.90
2017-12-13T01:28:02.389Z,15.80
2017-12-13T01:30:31.624Z,16.00
2017-12-13T01:33:02.202Z,15.90
2017-12-13T01:35:30.142Z,15.90
2017-12-13T01:37:58.858Z,14.40
2017-12-13T01:40:27.505Z,14.40
2017-12-13T01:42:56.484Z,14.90
2017-12-13T01:45:24.464Z,15.40
2017-12-13T01:47:53.261Z,15.60
2017-12-13T01:50:22.705Z,15.20
2017-12-13T01:52:51.459Z,15.20
2017-12-13T01:55:19.951Z,15.10
2017-12-13T01:57:48.633Z,15.10
2017-12-13T02:00:16.594Z,14.60
2017-12-13T02:02:45.087Z,14.70
2017-12-13T02:05:12.948Z,15.40
2017-12-13T02:07:42.791Z,15.80
2017-12-13T02:10:14.263Z,14.60
2017-12-13T02:12:43.787Z,14.50
2017-12-13T02:15:11.583Z,14.80
2017-12-13T02:17:41.280Z,15.60
2017-12-13T02:20:09.980Z,15.30
2017-12-13T02:22:38.776Z,14.60
2017-12-13T02:25:06.624Z,14.10
2017-12-13T02:27:35.975Z,14.20
2017-12-13T02:30:06.324Z,14.50
2017-12-13T02:32:35.405Z,14.50
2017-12-13T02:35:04.143Z,14.40
2017-12-13T02:37:32.075Z,14.00
2017-12-13T02:40:11.748Z,14.10
2017-12-13T02:42:40.323Z,14.30
2017-12-13T02:45:08.128Z,15.20
2017-12-13T02:47:35.942Z,15.40
2017-12-13T02:50:04.673Z,14.50
2017-12-13T02:52:32.562Z,14.50
2017-12-13T02:55:00.389Z,14.40
2017-12-13T02:57:28.285Z,14.80
2017-12-13T02:59:56.191Z,14.60
2017-12-13T03:02:24.009Z,14.60
2017-12-13T03:04:55.062Z,14.90
2017-12-13T03:07:24.505Z,15.00
2017-12-13T03:09:53.887Z,16.00
2017-12-13T03:12:21.770Z,16.00
2017-12-13T03:14:49.570Z,16.80
2017-12-13T03:17:18.139Z,16.50
2017-12-13T03:19:46.117Z,16.50
2017-12-13T03:22:14.698Z,16.80
2017-12-13T03:24:43.369Z,16.70
2017-12-13T03:27:11.262Z,16.10
2017-12-13T03:29:39.872Z,15.40
2017-12-13T03:32:07.794Z,15.40
2017-12-13T03:34:35.669Z,16.20
2017-12-13T03:37:03.566Z,16.30
2017-12-13T03:39:31.415Z,16.50
2017-12-13T03:41:59.814Z,16.10
2017-12-13T03:44:27.691Z,16.10
2017-12-13T03:46:55.489Z,15.90
2017-12-13T03:49:23.341Z,15.80
2017-12-13T03:51:51.145Z,15.60
2017-12-13T03:54:18.928Z,15.60
2017-12-13T03:56:46.808Z,15.90
2017-12-13T03:59:14.744Z,15.40
2017-12-13T04:01:42.653Z,14.90
2017-12-13T04:04:10.559Z,15.40
2017-12-13T04:06:39.893Z,15.30
2017-12-13T04:09:07.820Z,15.70
2017-12-13T04:11:35.648Z,15.70
2017-12-13T04:14:03.491Z,16.30
2017-12-13T04:16:31.361Z,16.70
2017-12-13T04:18:59.265Z,17.20
2017-12-13T04:21:27.092Z,17.40
2017-12-13T04:23:55.010Z,17.50
2017-12-13T04:26:22.851Z,17.40
2017-12-13T04:28:55.224Z,17.00
2017-12-13T04:31:23.819Z,16.30
2017-12-13T04:33:54.305Z,16.40
2017-12-13T04:36:22.409Z,16.30
2017-12-13T04:38:50.222Z,15.60
2017-12-13T04:41:19.023Z,15.10
2017-12-13T04:43:47.326Z,14.40
2017-12-13T04:46:15.981Z,13.70
2017-12-13T04:48:45.227Z,13.60
2017-12-13T04:51:13.119Z,13.70
2017-12-13T04:53:40.959Z,14.00
2017-12-13T04:56:08.760Z,13.20
2017-12-13T04:58:37.809Z,13.70
2017-12-13T05:01:06.814Z,14.20
2017-12-13T05:03:39.302Z,14.10
2017-12-13T05:08:42.570Z,14.10
2017-12-13T05:11:10.637Z,14.60
2017-12-13T05:13:39.355Z,15.30
2017-12-13T05:16:07.174Z,15.20
2017-12-13T05:18:38.186Z,15.30
2017-12-13T05:21:07.820Z,15.10
2017-12-13T05:23:35.770Z,15.50
2017-12-13T05:26:03.698Z,15.90
2017-12-13T05:28:31.621Z,16.10
2017-12-13T05:30:59.508Z,16.60
2017-12-13T05:33:33.330Z,16.90
2017-12-13T05:36:02.193Z,17.50
2017-12-13T05:38:30.148Z,17.50
2017-12-13T05:40:58.219Z,17.90
2017-12-13T05:43:26.208Z,18.20
2017-12-13T05:45:54.974Z,18.10
2017-12-13T05:48:23.998Z,18.60
2017-12-13T05:50:57.767Z,18.40
2017-12-13T05:53:25.568Z,18.80
2017-12-13T05:55:53.373Z,19.20
2017-12-13T05:58:21.929Z,19.70
2017-12-13T06:00:49.697Z,19.60
2017-12-13T06:03:17.684Z,19.70
2017-12-13T06:05:45.428Z,19.80
2017-12-13T06:08:13.236Z,20.00
2017-12-13T06:10:41.818Z,18.70
2017-12-13T06:13:10.433Z,19.00
2017-12-13T06:15:38.377Z,19.00
2017-12-13T06:18:06.260Z,19.30
2017-12-13T06:20:34.217Z,19.70
2017-12-13T06:23:02.897Z,20.20
2017-12-13T06:25:31.603Z,20.00
2017-12-13T06:27:59.371Z,20.00
2017-12-13T06:30:27.194Z,20.00
2017-12-13T06:32:55.088Z,19.60
2017-12-13T06:35:23.716Z,19.80
2017-12-13T06:37:51.802Z,19.70
2017-12-13T06:40:19.623Z,19.90
2017-12-13T06:42:53.209Z,20.60
2017-12-13T06:45:22.354Z,20.70
2017-12-13T06:47:50.198Z,20.70
2017-12-13T06:50:18.940Z,20.30
2017-12-13T06:52:46.798Z,20.20
2017-12-13T06:55:14.656Z,19.70
2017-12-13T06:57:42.638Z,19.50
2017-12-13T07:00:11.820Z,20.00
2017-12-13T07:02:39.775Z,20.10
2017-12-13T07:05:07.666Z,20.20
2017-12-13T07:07:36.707Z,19.60
2017-12-13T07:10:04.657Z,19.10
2017-12-13T07:12:32.710Z,19.40
2017-12-13T07:15:00.642Z,19.80
2017-12-13T07:17:29.204Z,18.80
2017-12-13T07:19:56.961Z,18.70
2017-12-13T07:22:24.896Z,18.60
2017-12-13T07:24:53.040Z,19.20
2017-12-13T07:27:20.942Z,19.70
2017-12-13T07:29:48.811Z,19.90
2017-12-13T07:32:16.776Z,19.70
2017-12-13T07:34:44.621Z,18.50
2017-12-13T07:37:13.351Z,18.50
2017-12-13T07:39:41.181Z,18.40
2017-12-13T07:42:08.936Z,18.40
2017-12-13T07:44:36.983Z,16.90
2017-12-13T07:47:04.802Z,18.80
2017-12-13T07:49:32.572Z,19.50
2017-12-13T07:52:00.662Z,20.00
2017-12-13T07:54:31.498Z,19.60
2017-12-13T07:56:59.484Z,20.40
2017-12-13T07:59:27.282Z,21.10
2017-12-13T08:01:55.011Z,21.00
2017-12-13T08:04:22.735Z,21.50
2017-12-13T08:06:51.341Z,21.30
2017-12-13T08:09:19.088Z,21.20
2017-12-13T08:11:47.034Z,21.30
2017-12-13T08:14:14.765Z,21.30
2017-12-13T08:16:42.562Z,21.40
2017-12-13T08:19:10.503Z,21.20
2017-12-13T08:21:38.239Z,21.50
2017-12-13T08:24:06.008Z,21.60
2017-12-13T08:26:33.845Z,20.40
2017-12-13T08:29:01.644Z,19.20
2017-12-13T08:31:29.459Z,20.40
2017-12-13T08:33:57.263Z,21.20
2017-12-13T08:36:24.998Z,21.40
2017-12-13T08:38:52.801Z,21.40
2017-12-13T08:41:20.602Z,20.40
2017-12-13T08:43:48.361Z,20.90
2017-12-13T08:46:16.086Z,21.40
2017-12-13T08:48:43.848Z,21.60
2017-12-13T08:51:11.597Z,21.30
2017-12-13T08:53:39.338Z,21.50
2017-12-13T08:56:07.146Z,21.80
2017-12-13T08:58:34.971Z,21.80
2017-12-13T09:01:02.789Z,21.80
2017-12-13T09:03:30.639Z,21.80
2017-12-13T09:05:58.387Z,21.20
2017-12-13T09:08:26.177Z,20.90
2017-12-13T09:10:54.054Z,20.90
2017-12-13T09:13:21.797Z,19.90
2017-12-13T09:15:49.605Z,19.10
2017-12-13T09:18:17.434Z,19.00
2017-12-13T09:20:45.154Z,20.00
2017-12-13T09:23:12.890Z,20.00
2017-12-13T09:25:40.703Z,19.90
2017-12-13T09:28:08.467Z,19.60
2017-12-13T09:30:36.303Z,19.70
2017-12-13T09:33:04.100Z,19.80
2017-12-13T09:35:31.871Z,19.90
2017-12-13T09:37:59.622Z,19.00
2017-12-13T09:40:27.763Z,18.10
2017-12-13T09:42:55.557Z,19.10
2017-12-13T09:45:24.161Z,20.40
2017-12-13T09:47:51.954Z,20.30
2017-12-13T09:50:19.778Z,20.60
2017-12-13T09:52:48.331Z,20.30
2017-12-13T09:55:16.130Z,20.30
2017-12-13T09:57:44.717Z,18.10
2017-12-13T10:00:12.537Z,18.00
2017-12-13T10:02:40.382Z,17.60
2017-12-13T10:05:08.178Z,17.10
2017-12-13T10:07:35.986Z,17.30
2017-12-13T10:10:03.804Z,17.00
2017-12-13T10:12:31.637Z,16.60
2017-12-13T10:14:59.360Z,16.50
2017-12-13T10:17:27.090Z,16.30
2017-12-13T10:19:54.832Z,16.90
2017-12-13T10:22:22.750Z,16.70
2017-12-13T10:24:50.481Z,16.10
2017-12-13T10:27:18.287Z,16.10
2017-12-13T10:29:46.073Z,16.20
2017-12-13T10:32:13.824Z,16.70
2017-12-13T10:34:41.629Z,17.70
2017-12-13T10:37:09.354Z,18.50
2017-12-13T10:39:37.125Z,18.30
2017-12-13T10:42:04.899Z,17.70
2017-12-13T10:44:32.698Z,17.80
2017-12-13T10:47:00.488Z,18.10
2017-12-13T10:49:28.332Z,18.20
2017-12-13T10:51:56.922Z,18.00
2017-12-13T10:54:24.683Z,17.90
2017-12-13T10:56:52.443Z,18.20
2017-12-13T10:59:20.253Z,17.70
2017-12-13T11:01:48.058Z,17.70
2017-12-13T11:04:15.883Z,18.40
2017-12-13T11:06:43.719Z,19.40
2017-12-13T11:09:11.557Z,19.70
2017-12-13T11:11:39.408Z,20.10
2017-12-13T11:14:07.344Z,19.10
2017-12-13T11:16:35.106Z,18.90
2017-12-13T11:19:03.016Z,18.50
2017-12-13T11:21:30.839Z,18.70
2017-12-13T11:23:58.595Z,19.00
2017-12-13T11:26:27.133Z,16.90
2017-12-13T11:28:54.947Z,16.80
2017-12-13T11:31:22.763Z,16.80
2017-12-13T11:33:50.696Z,17.60
2017-12-13T11:36:18.522Z,18.00
2017-12-13T11:38:46.279Z,18.10
2017-12-13T11:41:14.062Z,17.40
2017-12-13T11:43:41.877Z,16.20
2017-12-13T11:46:09.672Z,15.90
2017-12-13T11:48:37.589Z,16.00
2017-12-13T11:51:05.335Z,16.60
2017-12-13T11:53:33.131Z,15.50
2017-12-13T11:56:00.923Z,16.10
2017-12-13T11:58:28.678Z,17.20
2017-12-13T12:00:56.435Z,17.30
2017-12-13T12:03:24.227Z,17.20
2017-12-13T12:05:52.036Z,17.70
2017-12-13T12:10:39.209Z,18.90
2017-12-13T12:13:07.126Z,18.30
2017-12-13T12:15:35.044Z,18.20
2017-12-13T12:18:02.857Z,17.70
2017-12-13T12:20:30.669Z,17.20
2017-12-13T12:22:58.482Z,17.60
2017-12-13T12:25:26.883Z,18.60
2017-12-13T12:27:55.429Z,17.50
2017-12-13T12:30:23.265Z,17.40
2017-12-13T12:32:51.137Z,17.40
2017-12-13T12:35:18.946Z,17.40
2017-12-13T12:37:46.737Z,17.20
2017-12-13T12:40:15.290Z,18.50
2017-12-13T12:42:43.038Z,18.40
2017-12-13T12:45:10.949Z,18.80
2017-12-13T12:47:39.525Z,18.60
2017-12-13T12:50:07.985Z,18.60
2017-12-13T12:52:35.724Z,18.70
2017-12-13T12:55:03.495Z,17.70
2017-12-13T12:57:31.352Z,18.00
2017-12-13T12:59:59.212Z,17.70
2017-12-13T13:02:26.966Z,17.80
2017-12-13T13:04:54.748Z,17.70
2017-12-13T13:07:24.967Z,17.80
2017-12-13T13:09:52.728Z,18.50
2017-12-13T13:12:20.538Z,19.60
2017-12-13T13:14:48.328Z,20.20
2017-12-13T13:17:16.218Z,20.30
2017-12-13T13:19:44.047Z,20.10
2017-12-13T13:22:12.692Z,20.00
2017-12-13T13:24:40.569Z,20.00
2017-12-13T13:27:08.404Z,19.60
2017-12-13T13:29:36.254Z,20.50
2017-12-13T13:32:04.157Z,20.80
2017-12-13T13:34:32.022Z,20.10
2017-12-13T13:36:59.850Z,20.70
2017-12-13T13:39:27.649Z,20.60
2017-12-13T13:41:55.476Z,20.60
2017-12-13T13:44:23.229Z,19.70
2017-12-13T13:46:51.861Z,19.30
2017-12-13T13:49:19.621Z,19.30
2017-12-13T13:51:47.380Z,19.70
2017-12-13T13:54:15.221Z,20.50
2017-12-13T13:56:43.038Z,21.20
2017-12-13T13:59:10.896Z,21.20
2017-12-13T14:01:38.749Z,21.90
2017-12-13T14:04:06.585Z,21.80
2017-12-13T14:06:34.398Z,21.90
2017-12-13T14:09:02.271Z,22.20
2017-12-13T14:11:30.127Z,22.40
2017-12-13T14:13:57.998Z,22.60
2017-12-13T14:16:25.830Z,22.20
2017-12-13T14:18:53.606Z,21.20
2017-12-13T14:21:21.487Z,20.60
2017-12-13T14:23:49.288Z,21.30
2017-12-13T14:26:17.897Z,22.50
2017-12-13T14:28:45.721Z,22.40
2017-12-13T14:31:13.638Z,22.70
2017-12-13T14:33:41.465Z,21.50
2017-12-13T14:36:10.139Z,21.30
2017-12-13T14:38:37.990Z,21.30
2017-12-13T14:41:05.822Z,22.00
2017-12-13T14:43:33.592Z,21.10
2017-12-13T14:46:01.450Z,21.90
2017-12-13T14:48:29.585Z,22.20
2017-12-13T14:50:58.349Z,22.90
2017-12-13T14:53:26.163Z,22.90
2017-12-13T14:55:53.974Z,22.50
2017-12-13T14:58:22.763Z,22.30
2017-12-13T15:00:50.567Z,22.00
2017-12-13T15:03:19.526Z,22.70
2017-12-13T15:05:47.386Z,22.70
2017-12-13T15:08:15.158Z,22.50
2017-12-13T15:10:42.924Z,22.40
2017-12-13T15:13:10.785Z,22.90
2017-12-13T15:15:38.588Z,23.00
2017-12-13T15:18:07.213Z,23.10
2017-12-13T15:20:34.959Z,23.10
2017-12-13T15:23:02.735Z,23.20
2017-12-13T15:25:31.327Z,23.30
2017-12-13T15:27:59.069Z,23.50
2017-12-13T15:30:26.839Z,23.40
2017-12-13T15:32:54.660Z,23.30
2017-12-13T15:35:23.192Z,23.50
2017-12-13T15:37:50.982Z,23.50
2017-12-13T15:40:18.848Z,23.40
2017-12-13T15:42:46.701Z,23.30
2017-12-13T15:45:14.456Z,23.30
2017-12-13T15:47:42.294Z,23.20
2017-12-13T15:50:10.175Z,23.20
2017-12-13T15:52:37.987Z,23.30
2017-12-13T15:55:05.828Z,23.30
2017-12-13T15:57:33.683Z,23.40
2017-12-13T16:00:01.438Z,23.30
2017-12-13T16:02:29.272Z,23.30
2017-12-13T16:04:57.855Z,23.20
2017-12-13T16:07:26.520Z,23.20
2017-12-13T16:09:54.575Z,23.20
2017-12-13T16:12:22.969Z,23.20
2017-12-13T16:14:51.609Z,23.20
2017-12-13T16:17:19.456Z,23.20
2017-12-13T16:19:47.289Z,23.30
2017-12-13T16:22:16.550Z,23.20
2017-12-13T16:24:44.407Z,23.20
2017-12-13T16:27:12.214Z,23.30
2017-12-13T16:29:39.969Z,23.30
2017-12-13T16:32:08.279Z,23.00
2017-12-13T16:34:36.152Z,23.10
2017-12-13T16:37:04.839Z,23.20
2017-12-13T16:39:32.766Z,23.30
2017-12-13T16:42:01.302Z,23.40
2017-12-13T16:44:29.110Z,23.30
2017-12-13T16:46:56.961Z,23.30
2017-12-13T16:49:24.771Z,23.20
2017-12-13T16:51:53.421Z,22.80
2017-12-13T16:54:21.273Z,22.70
2017-12-13T16:56:49.061Z,23.00
2017-12-13T16:59:16.946Z,23.20
2017-12-13T17:01:44.772Z,23.20
2017-12-13T17:04:12.665Z,22.90
2017-12-13T17:06:40.524Z,23.10
2017-12-13T17:09:08.374Z,23.10
2017-12-13T17:11:36.243Z,23.10
2017-12-13T17:14:04.093Z,23.20
2017-12-13T17:16:31.956Z,23.20
2017-12-13T17:18:59.965Z,23.20
2017-12-13T17:21:27.959Z,23.30
2017-12-13T17:23:55.797Z,23.20
2017-12-13T17:26:23.645Z,23.20
2017-12-13T17:28:51.900Z,23.20
2017-12-13T17:31:19.685Z,23.20
2017-12-13T17:33:47.854Z,23.20
2017-12-13T17:36:15.762Z,23.10
2017-12-13T17:38:43.542Z,23.00
2017-12-13T17:41:12.118Z,23.60
2017-12-13T17:43:40.846Z,23.90
2017-12-13T17:46:08.623Z,23.90
2017-12-13T17:48:36.538Z,24.20
2017-12-13T17:51:05.141Z,24.00
2017-12-13T17:53:33.870Z,23.70
2017-12-13T17:56:01.908Z,23.70
2017-12-13T17:58:29.870Z,23.50
2017-12-13T18:00:57.644Z,23.40
2017-12-13T18:03:25.579Z,23.40
2017-12-13T18:05:53.342Z,23.70
2017-12-13T18:08:21.127Z,23.80
2017-12-13T18:10:49.716Z,23.80
2017-12-13T18:13:17.633Z,23.70
2017-12-13T18:15:45.458Z,23.70
2017-12-13T18:18:13.349Z,23.80
2017-12-13T18:20:41.173Z,23.70
2017-12-13T18:23:08.965Z,23.10
2017-12-13T18:25:36.913Z,23.20
2017-12-13T18:28:04.990Z,23.30
2017-12-13T18:30:32.858Z,23.40
2017-12-13T18:33:00.683Z,23.50
2017-12-13T18:35:28.506Z,23.60
2017-12-13T18:37:56.471Z,23.40
2017-12-13T18:40:24.569Z,23.50
2017-12-13T18:42:53.296Z,23.70
2017-12-13T18:45:21.965Z,23.90
2017-12-13T18:47:50.000Z,23.90
2017-12-13T18:50:17.877Z,23.80
2017-12-13T18:52:45.827Z,23.70
2017-12-13T18:55:13.661Z,23.70
2017-12-13T18:57:41.521Z,23.60
2017-12-13T19:00:10.122Z,24.00
2017-12-13T19:02:38.245Z,23.90
2017-12-13T19:05:06.232Z,24.00
2017-12-13T19:07:34.981Z,23.80
2017-12-13T19:10:02.829Z,23.80
2017-12-13T19:12:30.671Z,23.70
2017-12-13T19:14:59.419Z,23.60
2017-12-13T19:17:27.295Z,23.60
2017-12-13T19:19:55.098Z,23.70
2017-12-13T19:22:23.772Z,23.70
2017-12-13T19:24:53.201Z,23.70
2017-12-13T19:27:22.634Z,23.60
2017-12-13T19:29:50.940Z,23.60
2017-12-13T19:32:19.818Z,23.40
2017-12-13T19:34:47.981Z,23.40
2017-12-13T19:37:16.201Z,23.30
2017-12-13T19:39:44.731Z,23.40
2017-12-13T19:42:13.622Z,23.40
2017-12-13T19:44:41.896Z,23.40
2017-12-13T19:47:09.794Z,23.40
2017-12-13T19:49:38.962Z,23.50
2017-12-13T19:52:07.914Z,23.50
2017-12-13T19:54:37.970Z,23.30
2017-12-13T19:57:06.312Z,23.30
2017-12-13T19:59:35.477Z,23.00
2017-12-13T20:02:04.691Z,22.90
2017-12-13T20:04:33.816Z,22.90
2017-12-13T20:07:02.435Z,23.10
2017-12-13T20:09:31.845Z,23.20
2017-12-13T20:11:59.691Z,23.20
2017-12-13T20:14:28.171Z,23.30
2017-12-13T20:16:57.897Z,23.40
2017-12-13T20:19:26.039Z,23.40
2017-12-13T20:21:54.608Z,23.50
2017-12-13T20:24:22.876Z,23.40
2017-12-13T20:26:52.609Z,23.40
2017-12-13T20:29:22.662Z,23.50
2017-12-13T20:31:50.924Z,23.40
2017-12-13T20:34:19.249Z,23.40
2017-12-13T20:36:47.713Z,23.40
2017-12-13T20:39:16.853Z,23.40
2017-12-13T20:41:45.121Z,23.40
2017-12-13T20:44:13.228Z,23.40
2017-12-13T20:46:41.538Z,23.40
2017-12-13T20:49:09.622Z,23.40
2017-12-13T20:51:38.593Z,23.40
2017-12-13T20:54:06.392Z,23.50
2017-12-13T20:56:34.710Z,23.40
2017-12-13T20:59:04.554Z,23.40
2017-12-13T21:01:33.368Z,23.40
2017-12-13T21:04:01.671Z,23.40
2017-12-13T21:06:29.590Z,23.40
2017-12-13T21:08:57.409Z,23.50
2017-12-13T21:11:25.310Z,23.70
2017-12-13T21:13:53.912Z,23.60
2017-12-13T21:16:21.863Z,23.50
2017-12-13T21:18:50.424Z,23.70
2017-12-13T21:21:19.546Z,23.70
2017-12-13T21:23:47.699Z,23.70
2017-12-13T21:26:17.230Z,23.50
2017-12-13T21:28:47.250Z,23.40
2017-12-13T21:31:15.107Z,23.30
2017-12-13T21:33:43.867Z,23.20
2017-12-13T21:36:11.934Z,23.20
2017-12-13T21:38:40.000Z,23.30
2017-12-13T21:41:07.865Z,23.20
2017-12-13T21:43:36.046Z,23.00
2017-12-13T21:46:04.620Z,22.80
2017-12-13T21:48:32.488Z,22.80
2017-12-13T21:51:00.362Z,22.80
2017-12-13T21:53:28.221Z,22.80
2017-12-13T21:55:56.303Z,22.70
2017-12-13T21:58:24.271Z,22.50
2017-12-13T22:00:52.252Z,22.50
2017-12-13T23:25:17.834Z,22.50
2017-12-13T23:27:45.692Z,21.20
2017-12-13T23:30:14.329Z,21.20
2017-12-13T23:32:42.061Z,21.10
2017-12-13T23:35:10.565Z,21.10
2017-12-13T23:37:38.371Z,21.10
2017-12-13T23:40:06.169Z,21.00
2017-12-13T23:42:33.955Z,21.00
2017-12-13T23:45:01.776Z,21.00
2017-12-13T23:47:29.528Z,20.80
2017-12-13T23:49:57.349Z,20.90
2017-12-13T23:52:25.946Z,20.90
2017-12-13T23:54:53.694Z,20.80
2017-12-13T23:57:21.518Z,20.70
2017-12-13T23:59:49.329Z,20.80
